Time;durP1;ratioP1;P1;durP2;ratioP2;P2;SDS_P1;SDS_P2;PMS_P1;PMS_P2;Temp;Humidity;BMP_temperature;BMP_pressure;BME280_temperature;BME280_humidity;BME280_pressure;Samples;Min_cycle;Max_cycle;Signal;HPM_P1;HPM_P2
2023/08/14 00:00:17;;;;;;;;;;;21.60;99.90;;;;;;2056335;28;22433;-69
2023/08/14 00:01:17;;;;;;;;;;;21.60;99.90;;;;;;2057202;28;19918;-69
2023/08/14 00:02:18;;;;;;;;;;;21.60;99.90;;;;;;2058652;28;20316;-69
2023/08/14 00:03:18;;;;;;;;;;;21.60;99.90;;;;;;2058870;28;19922;-67
2023/08/14 00:04:19;;;;;;;;;;;21.60;99.90;;;;;;2061110;28;20008;-69
2023/08/14 00:05:19;;;;;;;;;;;21.50;99.90;;;;;;2058724;28;19914;-69
2023/08/14 00:06:20;;;;;;;;;;;21.50;99.90;;;;;;2058055;28;19909;-69
2023/08/14 00:07:20;;;;;;;;;;;21.50;99.90;;;;;;2059766;28;20404;-69
2023/08/14 00:08:21;;;;;;;;;;;21.50;99.90;;;;;;2050579;28;19922;-69
2023/08/14 00:09:22;;;;;;;;;;;21.50;99.90;;;;;;2056726;28;19922;-69
2023/08/14 00:10:22;;;;;;;;;;;21.40;99.90;;;;;;2053554;28;20015;-68
2023/08/14 00:11:23;;;;;;;;;;;21.40;99.90;;;;;;2058195;28;19925;-69
2023/08/14 00:12:23;;;;;;;;;;;21.40;99.90;;;;;;2059885;28;19938;-69
2023/08/14 00:13:24;;;;;;;;;;;21.40;99.90;;;;;;2045902;28;19922;-69
2023/08/14 00:14:24;;;;;;;;;;;21.40;99.90;;;;;;2057807;28;20587;-69
2023/08/14 00:15:25;;;;;;;;;;;21.40;99.90;;;;;;2051467;28;19922;-69
2023/08/14 00:16:25;;;;;;;;;;;21.40;99.90;;;;;;2056951;28;20026;-70
2023/08/14 00:17:26;;;;;;;;;;;21.40;99.90;;;;;;2058156;28;20385;-70
2023/08/14 00:18:26;;;;;;;;;;;21.30;99.90;;;;;;2057376;28;20361;-69
2023/08/14 00:19:27;;;;;;;;;;;21.30;99.90;;;;;;2055312;28;19940;-69
2023/08/14 00:20:27;;;;;;;;;;;21.30;99.90;;;;;;2060663;28;19918;-70
2023/08/14 00:21:28;;;;;;;;;;;21.30;99.90;;;;;;2046316;28;19918;-70
2023/08/14 00:22:29;;;;;;;;;;;21.30;99.90;;;;;;2045583;28;20366;-69
2023/08/14 00:23:29;;;;;;;;;;;21.20;99.90;;;;;;2057409;28;19918;-69
2023/08/14 00:24:29;;;;;;;;;;;21.20;99.90;;;;;;2058670;28;20206;-71
2023/08/14 00:25:30;;;;;;;;;;;21.20;99.90;;;;;;2058814;28;20108;-71
2023/08/14 00:26:30;;;;;;;;;;;21.20;99.90;;;;;;2055919;28;20404;-69
2023/08/14 00:27:31;;;;;;;;;;;21.20;99.90;;;;;;2057092;28;20001;-69
2023/08/14 00:28:32;;;;;;;;;;;21.10;99.90;;;;;;2057950;28;19922;-71
2023/08/14 00:29:32;;;;;;;;;;;21.10;99.90;;;;;;2059210;28;19929;-69
2023/08/14 00:30:33;;;;;;;;;;;21.10;99.90;;;;;;2063436;28;19919;-69
2023/08/14 00:31:33;;;;;;;;;;;21.20;99.90;;;;;;2065478;28;20338;-69
2023/08/14 00:32:34;;;;;;;;;;;21.10;99.90;;;;;;2058168;28;20488;-69
2023/08/14 00:33:35;;;;;;;;;;;21.10;99.90;;;;;;2050065;28;20290;-70
2023/08/14 00:34:35;;;;;;;;;;;21.20;99.90;;;;;;2051608;28;20487;-69
2023/08/14 00:35:36;;;;;;;;;;;21.20;99.90;;;;;;2058330;28;19930;-69
2023/08/14 00:36:36;;;;;;;;;;;21.10;99.90;;;;;;2058644;28;19921;-69
2023/08/14 00:37:43;;;;;;;;;;;21.20;99.90;;;;;;2058081;28;19944;-69
2023/08/14 00:38:44;;;;;;;;;;;21.10;99.90;;;;;;2050887;28;20510;-69
2023/08/14 00:39:44;;;;;;;;;;;21.10;99.90;;;;;;2060024;28;19921;-70
2023/08/14 00:40:45;;;;;;;;;;;21.10;99.90;;;;;;2053042;28;19914;-69
2023/08/14 00:41:45;;;;;;;;;;;21.10;99.90;;;;;;2050015;28;19920;-70
2023/08/14 00:42:46;;;;;;;;;;;21.00;99.90;;;;;;2053843;28;19914;-69
2023/08/14 00:43:47;;;;;;;;;;;21.00;99.90;;;;;;2051344;28;20304;-69
2023/08/14 00:44:48;;;;;;;;;;;21.00;99.90;;;;;;2051777;28;19918;-69
2023/08/14 00:45:51;;;;;;;;;;;21.00;99.90;;;;;;2052008;28;20225;-70
2023/08/14 00:46:51;;;;;;;;;;;21.00;99.90;;;;;;2056963;28;20384;-69
2023/08/14 00:47:52;;;;;;;;;;;21.00;99.90;;;;;;2048312;28;20020;-68
2023/08/14 00:48:52;;;;;;;;;;;20.90;99.90;;;;;;2055088;28;20443;-69
2023/08/14 00:49:53;;;;;;;;;;;20.90;99.90;;;;;;2051914;28;19925;-69
2023/08/14 00:50:54;;;;;;;;;;;20.90;99.90;;;;;;2050132;28;19962;-68
2023/08/14 00:51:54;;;;;;;;;;;20.90;99.90;;;;;;2065639;28;20404;-69
2023/08/14 00:52:55;;;;;;;;;;;20.90;99.90;;;;;;2066038;28;19909;-69
2023/08/14 00:53:56;;;;;;;;;;;20.90;99.90;;;;;;2043687;28;19958;-69
2023/08/14 00:54:57;;;;;;;;;;;20.80;99.90;;;;;;2050191;28;20409;-69
2023/08/14 00:55:59;;;;;;;;;;;20.90;99.90;;;;;;2053630;28;19950;-69
2023/08/14 00:56:59;;;;;;;;;;;20.80;99.90;;;;;;2042240;28;19914;-69
2023/08/14 00:58:00;;;;;;;;;;;20.80;99.90;;;;;;2060012;28;19938;-70
2023/08/14 00:59:01;;;;;;;;;;;20.80;99.90;;;;;;2058729;28;19930;-69
2023/08/14 01:00:03;;;;;;;;;;;20.80;99.90;;;;;;2060339;28;19921;-69
2023/08/14 01:01:05;;;;;;;;;;;20.80;99.90;;;;;;2060267;28;19941;-69
2023/08/14 01:02:06;;;;;;;;;;;20.70;99.90;;;;;;2061405;28;19913;-71
2023/08/14 01:03:06;;;;;;;;;;;20.70;99.90;;;;;;2059676;28;19921;-73
2023/08/14 01:04:07;;;;;;;;;;;20.70;99.90;;;;;;2058973;28;19986;-73
2023/08/14 01:05:08;;;;;;;;;;;20.70;99.90;;;;;;2056909;28;19924;-70
2023/08/14 01:06:08;;;;;;;;;;;20.70;99.90;;;;;;2061502;28;20040;-68
2023/08/14 01:07:09;;;;;;;;;;;20.70;99.90;;;;;;2061272;28;19971;-68
2023/08/14 01:08:10;;;;;;;;;;;20.60;99.90;;;;;;2055147;28;20468;-69
2023/08/14 01:09:11;;;;;;;;;;;20.60;99.90;;;;;;2058850;28;20419;-68
2023/08/14 01:10:12;;;;;;;;;;;20.60;99.90;;;;;;2054568;28;19976;-69
2023/08/14 01:11:27;;;;;;;;;;;20.60;99.90;;;;;;2061384;28;20326;-69
2023/08/14 01:12:46;;;;;;;;;;;20.60;99.90;;;;;;2052445;28;19918;-70
2023/08/14 01:13:59;;;;;;;;;;;20.60;99.90;;;;;;2060010;28;19940;-69
2023/08/14 01:15:01;;;;;;;;;;;20.60;99.90;;;;;;2060327;28;19941;-69
2023/08/14 01:16:07;;;;;;;;;;;20.60;99.90;;;;;;2059385;28;19936;-68
2023/08/14 01:17:10;;;;;;;;;;;20.60;99.90;;;;;;2052131;28;20231;-67
2023/08/14 01:18:13;;;;;;;;;;;20.60;99.90;;;;;;2059542;28;19984;-67
2023/08/14 01:19:25;;;;;;;;;;;20.60;99.90;;;;;;2061274;28;20220;-69
2023/08/14 01:20:27;;;;;;;;;;;20.50;99.90;;;;;;2059122;28;19913;-68
2023/08/14 01:21:35;;;;;;;;;;;20.50;99.90;;;;;;2058471;28;20059;-68
2023/08/14 01:22:44;;;;;;;;;;;20.50;99.90;;;;;;2053278;28;20341;-68
2023/08/14 01:24:04;;;;;;;;;;;20.50;99.90;;;;;;2054069;28;19918;-68
2023/08/14 01:25:25;;;;;;;;;;;20.50;99.90;;;;;;2056559;28;20483;-69
2023/08/14 01:26:26;;;;;;;;;;;20.50;99.90;;;;;;2059538;28;19922;-67
2023/08/14 01:27:27;;;;;;;;;;;20.50;99.90;;;;;;2059348;28;19961;-69
2023/08/14 01:28:28;;;;;;;;;;;20.50;99.90;;;;;;2056074;28;20336;-69
2023/08/14 01:29:31;;;;;;;;;;;20.50;99.90;;;;;;2053086;28;20244;-69
2023/08/14 01:30:32;;;;;;;;;;;20.50;99.90;;;;;;2059400;28;19921;-67
2023/08/14 01:31:33;;;;;;;;;;;20.50;99.90;;;;;;2060084;28;19957;-69
2023/08/14 01:32:35;;;;;;;;;;;20.50;99.90;;;;;;2051784;28;20306;-69
2023/08/14 01:33:35;;;;;;;;;;;20.50;99.90;;;;;;2054722;28;20352;-68
2023/08/14 01:34:36;;;;;;;;;;;20.40;99.90;;;;;;2057327;28;20397;-68
2023/08/14 01:35:38;;;;;;;;;;;20.50;99.90;;;;;;2063633;28;19968;-68
2023/08/14 01:36:42;;;;;;;;;;;20.40;99.90;;;;;;2059977;28;20620;-68
2023/08/14 01:38:01;;;;;;;;;;;20.40;99.90;;;;;;2051408;28;19926;-68
2023/08/14 01:39:02;;;;;;;;;;;20.40;99.90;;;;;;2048509;28;19921;-68
2023/08/14 01:40:07;;;;;;;;;;;20.40;99.90;;;;;;2056945;28;20016;-69
2023/08/14 01:41:07;;;;;;;;;;;20.40;99.90;;;;;;2059211;28;19925;-70
2023/08/14 01:42:25;;;;;;;;;;;20.30;99.90;;;;;;2060183;28;19941;-67
2023/08/14 01:43:33;;;;;;;;;;;20.30;99.90;;;;;;2059218;28;20771;-67
2023/08/14 01:44:35;;;;;;;;;;;20.40;99.90;;;;;;2057498;28;19918;-67
2023/08/14 01:45:36;;;;;;;;;;;20.30;99.90;;;;;;2053160;28;19925;-68
2023/08/14 01:46:38;;;;;;;;;;;20.30;99.90;;;;;;2059336;28;19917;-68
2023/08/14 01:47:41;;;;;;;;;;;20.30;99.90;;;;;;2059348;28;20416;-68
2023/08/14 01:48:41;;;;;;;;;;;20.30;99.90;;;;;;2058861;28;19933;-68
2023/08/14 01:49:42;;;;;;;;;;;20.30;99.90;;;;;;2056143;28;19953;-69
2023/08/14 01:50:45;;;;;;;;;;;20.30;99.90;;;;;;2060906;28;19917;-68
2023/08/14 01:51:46;;;;;;;;;;;20.30;99.90;;;;;;2041475;28;20389;-69
2023/08/14 01:52:48;;;;;;;;;;;20.30;99.90;;;;;;2049878;28;20025;-70
2023/08/14 01:53:48;;;;;;;;;;;20.20;99.90;;;;;;2059047;28;20396;-69
2023/08/14 01:54:49;;;;;;;;;;;20.20;99.90;;;;;;2060970;28;20156;-68
2023/08/14 01:55:49;;;;;;;;;;;20.20;99.90;;;;;;2055363;28;19914;-67
2023/08/14 01:56:50;;;;;;;;;;;20.20;99.90;;;;;;2058435;28;20512;-69
2023/08/14 01:57:51;;;;;;;;;;;20.20;99.90;;;;;;2050676;28;19914;-69
2023/08/14 01:58:52;;;;;;;;;;;20.20;99.90;;;;;;2055732;28;19915;-69
2023/08/14 01:59:54;;;;;;;;;;;20.20;99.90;;;;;;2057875;28;20326;-69
2023/08/14 02:00:54;;;;;;;;;;;20.20;99.90;;;;;;2059913;28;20510;-68
2023/08/14 02:01:55;;;;;;;;;;;20.20;99.90;;;;;;2060013;28;19917;-69
2023/08/14 02:02:57;;;;;;;;;;;20.20;99.90;;;;;;2059843;28;19917;-69
2023/08/14 02:03:57;;;;;;;;;;;20.20;99.90;;;;;;2059858;28;20436;-68
2023/08/14 02:05:01;;;;;;;;;;;20.20;99.90;;;;;;2061135;28;19921;-67
2023/08/14 02:06:02;;;;;;;;;;;20.10;99.90;;;;;;2056766;28;19918;-68
2023/08/14 02:07:03;;;;;;;;;;;20.20;99.90;;;;;;2059601;28;20385;-67
2023/08/14 02:08:04;;;;;;;;;;;20.10;99.90;;;;;;2059694;28;19918;-69
2023/08/14 02:09:04;;;;;;;;;;;20.10;99.90;;;;;;2057211;28;19925;-69
2023/08/14 02:10:05;;;;;;;;;;;20.10;99.90;;;;;;2056127;28;19948;-68
2023/08/14 02:11:06;;;;;;;;;;;20.10;99.90;;;;;;2059915;28;19948;-68
2023/08/14 02:12:08;;;;;;;;;;;20.10;99.90;;;;;;2058806;28;20415;-68
2023/08/14 02:13:09;;;;;;;;;;;20.10;99.90;;;;;;2050723;28;19920;-69
2023/08/14 02:14:09;;;;;;;;;;;20.10;99.90;;;;;;2059157;28;20309;-69
2023/08/14 02:15:10;;;;;;;;;;;20.10;99.90;;;;;;2059894;28;19945;-69
2023/08/14 02:16:11;;;;;;;;;;;20.00;99.90;;;;;;2053008;28;19921;-69
2023/08/14 02:17:11;;;;;;;;;;;20.10;99.90;;;;;;2050962;28;20381;-69
2023/08/14 02:18:13;;;;;;;;;;;20.00;99.90;;;;;;2053254;28;19961;-69
2023/08/14 02:19:13;;;;;;;;;;;20.00;99.90;;;;;;2059957;28;19969;-69
2023/08/14 02:20:15;;;;;;;;;;;20.00;99.90;;;;;;2060833;28;19918;-69
2023/08/14 02:21:16;;;;;;;;;;;20.00;99.90;;;;;;2058947;28;19918;-69
2023/08/14 02:22:16;;;;;;;;;;;20.00;99.90;;;;;;2059697;28;19917;-69
2023/08/14 02:23:17;;;;;;;;;;;20.00;99.90;;;;;;2061809;28;19961;-68
2023/08/14 02:24:17;;;;;;;;;;;20.00;99.90;;;;;;2060885;28;20389;-68
2023/08/14 02:25:18;;;;;;;;;;;20.00;99.90;;;;;;2059033;28;19966;-68
2023/08/14 02:26:18;;;;;;;;;;;20.00;99.90;;;;;;2055621;28;21101;-68
2023/08/14 02:27:19;;;;;;;;;;;19.90;99.90;;;;;;2052451;28;19973;-68
2023/08/14 02:28:20;;;;;;;;;;;19.90;99.90;;;;;;2056429;28;20014;-69
2023/08/14 02:29:23;;;;;;;;;;;19.90;99.90;;;;;;2059508;28;19968;-68
2023/08/14 02:30:23;;;;;;;;;;;19.90;99.90;;;;;;2058863;28;19921;-68
2023/08/14 02:31:24;;;;;;;;;;;19.90;99.90;;;;;;2050621;28;20005;-68
2023/08/14 02:32:25;;;;;;;;;;;19.90;99.90;;;;;;2058980;28;20020;-68
2023/08/14 02:33:28;;;;;;;;;;;19.90;99.90;;;;;;2066856;28;20530;-69
2023/08/14 02:34:44;;;;;;;;;;;19.90;99.90;;;;;;2056783;28;19914;-68
2023/08/14 02:35:45;;;;;;;;;;;19.90;99.90;;;;;;2058015;28;19983;-68
2023/08/14 02:36:45;;;;;;;;;;;19.80;99.90;;;;;;2057745;28;19983;-68
2023/08/14 02:37:46;;;;;;;;;;;19.80;99.90;;;;;;2058808;28;19980;-68
2023/08/14 02:38:49;;;;;;;;;;;19.80;99.90;;;;;;2055732;28;20604;-68
2023/08/14 02:39:50;;;;;;;;;;;19.80;99.90;;;;;;2056963;28;20012;-68
2023/08/14 02:40:50;;;;;;;;;;;19.80;99.90;;;;;;2058745;28;19961;-68
2023/08/14 02:41:51;;;;;;;;;;;19.80;99.90;;;;;;2058889;28;19922;-69
2023/08/14 02:42:51;;;;;;;;;;;19.80;99.90;;;;;;2059555;28;19949;-69
2023/08/14 02:43:52;;;;;;;;;;;19.80;99.90;;;;;;2060892;28;20044;-69
2023/08/14 02:44:53;;;;;;;;;;;19.80;99.90;;;;;;2050892;28;20412;-68
2023/08/14 02:45:54;;;;;;;;;;;19.80;99.90;;;;;;2058957;28;20008;-68
2023/08/14 02:46:55;;;;;;;;;;;19.70;99.90;;;;;;2056886;28;20475;-68
2023/08/14 02:47:55;;;;;;;;;;;19.70;99.90;;;;;;2050549;28;19973;-68
2023/08/14 02:48:56;;;;;;;;;;;19.70;99.90;;;;;;2052781;28;19930;-68
2023/08/14 02:49:56;;;;;;;;;;;19.70;99.90;;;;;;2065754;28;19972;-68
2023/08/14 02:50:57;;;;;;;;;;;19.70;99.90;;;;;;2057538;28;19947;-68
2023/08/14 02:51:57;;;;;;;;;;;19.70;99.90;;;;;;2048989;28;19920;-68
2023/08/14 02:52:58;;;;;;;;;;;19.70;99.90;;;;;;2047395;28;19925;-68
2023/08/14 02:53:58;;;;;;;;;;;19.70;99.90;;;;;;2050029;28;19961;-69
2023/08/14 02:54:59;;;;;;;;;;;19.70;99.90;;;;;;2051237;28;20452;-69
2023/08/14 02:56:00;;;;;;;;;;;19.70;99.90;;;;;;2055679;28;20382;-68
2023/08/14 02:57:00;;;;;;;;;;;19.70;99.90;;;;;;2059292;28;19917;-68
2023/08/14 02:58:01;;;;;;;;;;;19.70;99.90;;;;;;2060503;28;19980;-68
2023/08/14 02:59:01;;;;;;;;;;;19.70;99.90;;;;;;2047642;28;19918;-68
2023/08/14 03:00:04;;;;;;;;;;;19.70;99.90;;;;;;2053843;28;19953;-68
2023/08/14 03:01:04;;;;;;;;;;;19.70;99.90;;;;;;2064424;28;19917;-68
2023/08/14 03:02:05;;;;;;;;;;;19.70;99.90;;;;;;2055472;28;20412;-69
2023/08/14 03:03:05;;;;;;;;;;;19.70;99.90;;;;;;2053537;28;20365;-69
2023/08/14 03:04:06;;;;;;;;;;;19.70;99.90;;;;;;2051579;28;19918;-69
2023/08/14 03:05:06;;;;;;;;;;;19.70;99.90;;;;;;2051653;28;20328;-69
2023/08/14 03:06:08;;;;;;;;;;;19.60;99.90;;;;;;2060768;28;19972;-69
2023/08/14 03:07:09;;;;;;;;;;;19.60;99.90;;;;;;2059371;28;19914;-69
2023/08/14 03:08:09;;;;;;;;;;;19.60;99.90;;;;;;2050375;28;19989;-69
2023/08/14 03:09:10;;;;;;;;;;;19.60;99.90;;;;;;2050130;28;20346;-69
2023/08/14 03:10:10;;;;;;;;;;;19.60;99.90;;;;;;2051795;28;20166;-69
2023/08/14 03:11:11;;;;;;;;;;;19.60;99.90;;;;;;2060425;28;19918;-69
2023/08/14 03:12:11;;;;;;;;;;;19.60;99.90;;;;;;2059303;28;20273;-69
2023/08/14 03:13:12;;;;;;;;;;;19.60;99.90;;;;;;2055102;28;19968;-69
2023/08/14 03:14:12;;;;;;;;;;;19.60;99.90;;;;;;2048108;28;20005;-69
2023/08/14 03:15:13;;;;;;;;;;;19.60;99.90;;;;;;2058601;28;20207;-68
2023/08/14 03:16:13;;;;;;;;;;;19.60;99.90;;;;;;2060222;28;20364;-68
2023/08/14 03:17:14;;;;;;;;;;;19.60;99.90;;;;;;2058589;28;20124;-68
2023/08/14 03:18:15;;;;;;;;;;;19.60;99.90;;;;;;2050550;28;20012;-68
2023/08/14 03:19:15;;;;;;;;;;;19.50;99.90;;;;;;2050600;28;19956;-69
2023/08/14 03:20:16;;;;;;;;;;;19.50;99.90;;;;;;2060139;28;19964;-68
2023/08/14 03:21:16;;;;;;;;;;;19.50;99.90;;;;;;2050400;28;19994;-70
2023/08/14 03:22:17;;;;;;;;;;;19.50;99.90;;;;;;2055069;28;19913;-68
2023/08/14 03:23:17;;;;;;;;;;;19.50;99.90;;;;;;2051350;28;19914;-69
2023/08/14 03:24:18;;;;;;;;;;;19.50;99.90;;;;;;2060227;28;20001;-69
2023/08/14 03:25:20;;;;;;;;;;;19.50;99.90;;;;;;2058506;28;19922;-69
2023/08/14 03:26:20;;;;;;;;;;;19.50;99.90;;;;;;2058717;28;19918;-69
2023/08/14 03:27:21;;;;;;;;;;;19.40;99.90;;;;;;2058615;28;20290;-69
2023/08/14 03:28:21;;;;;;;;;;;19.40;99.90;;;;;;2060349;28;19984;-68
2023/08/14 03:29:22;;;;;;;;;;;19.50;99.90;;;;;;2054676;28;19917;-68
2023/08/14 03:30:24;;;;;;;;;;;19.40;99.90;;;;;;2057479;28;20282;-67
2023/08/14 03:31:25;;;;;;;;;;;19.50;99.90;;;;;;2050465;28;20385;-68
2023/08/14 03:32:26;;;;;;;;;;;19.40;99.90;;;;;;2050147;28;20301;-68
2023/08/14 03:33:26;;;;;;;;;;;19.40;99.90;;;;;;2054884;28;20288;-68
2023/08/14 03:34:28;;;;;;;;;;;19.40;99.90;;;;;;2052214;28;20385;-68
2023/08/14 03:35:30;;;;;;;;;;;19.40;99.90;;;;;;2046248;28;19914;-68
2023/08/14 03:36:31;;;;;;;;;;;19.40;99.90;;;;;;2060758;28;20047;-68
2023/08/14 03:37:34;;;;;;;;;;;19.40;99.90;;;;;;2047325;28;20556;-69
2023/08/14 03:38:34;;;;;;;;;;;19.40;99.90;;;;;;2046115;28;19914;-68
2023/08/14 03:39:35;;;;;;;;;;;19.40;99.90;;;;;;2058360;28;20055;-68
2023/08/14 03:40:36;;;;;;;;;;;19.40;99.90;;;;;;2050450;28;20405;-69
2023/08/14 03:41:36;;;;;;;;;;;19.40;99.90;;;;;;2052360;28;19918;-68
2023/08/14 03:42:38;;;;;;;;;;;19.40;99.90;;;;;;2045790;28;19965;-68
2023/08/14 03:43:39;;;;;;;;;;;19.40;99.90;;;;;;2042633;28;19966;-68
2023/08/14 03:44:39;;;;;;;;;;;19.40;99.90;;;;;;2050753;28;19925;-67
2023/08/14 03:45:40;;;;;;;;;;;19.40;99.90;;;;;;2056450;28;20013;-67
2023/08/14 03:46:40;;;;;;;;;;;19.40;99.90;;;;;;2056829;28;19996;-67
2023/08/14 03:47:41;;;;;;;;;;;19.40;99.90;;;;;;2056363;28;20441;-67
2023/08/14 03:48:42;;;;;;;;;;;19.40;99.90;;;;;;2055763;28;19918;-68
2023/08/14 03:49:43;;;;;;;;;;;19.40;99.90;;;;;;2060535;28;20017;-67
2023/08/14 03:50:49;;;;;;;;;;;19.40;99.90;;;;;;2058636;28;19936;-67
2023/08/14 03:51:49;;;;;;;;;;;19.40;99.90;;;;;;2050245;28;19914;-68
2023/08/14 03:52:50;;;;;;;;;;;19.40;99.90;;;;;;2045798;28;19918;-68
2023/08/14 03:53:51;;;;;;;;;;;19.40;99.90;;;;;;2052236;28;20265;-68
2023/08/14 03:54:53;;;;;;;;;;;19.40;99.90;;;;;;2052370;28;20178;-68
2023/08/14 03:55:54;;;;;;;;;;;19.40;99.90;;;;;;2054508;28;20477;-68
2023/08/14 03:56:55;;;;;;;;;;;19.40;99.90;;;;;;2055031;28;21144;-69
2023/08/14 03:57:57;;;;;;;;;;;19.40;99.90;;;;;;2057049;28;20388;-68
2023/08/14 03:58:57;;;;;;;;;;;19.40;99.90;;;;;;2058699;28;19925;-68
2023/08/14 03:59:58;;;;;;;;;;;19.40;99.90;;;;;;2058441;28;19953;-68
2023/08/14 04:00:59;;;;;;;;;;;19.40;99.90;;;;;;2056221;28;20020;-67
2023/08/14 04:02:00;;;;;;;;;;;19.40;99.90;;;;;;2056223;28;19921;-67
2023/08/14 04:03:01;;;;;;;;;;;19.40;99.90;;;;;;2043011;28;20552;-67
2023/08/14 04:04:02;;;;;;;;;;;19.40;99.90;;;;;;2057913;28;19960;-67
2023/08/14 04:05:03;;;;;;;;;;;19.40;99.90;;;;;;2060090;28;19914;-68
2023/08/14 04:06:04;;;;;;;;;;;19.40;99.90;;;;;;2058213;28;20112;-68
2023/08/14 04:07:04;;;;;;;;;;;19.40;99.90;;;;;;2058256;28;19922;-68
2023/08/14 04:08:06;;;;;;;;;;;19.40;99.90;;;;;;2066153;28;19920;-69
2023/08/14 04:09:07;;;;;;;;;;;19.40;99.90;;;;;;2056534;28;19937;-68
2023/08/14 04:10:07;;;;;;;;;;;19.40;99.90;;;;;;2053742;28;20387;-68
2023/08/14 04:11:09;;;;;;;;;;;19.50;99.90;;;;;;2058823;28;20062;-68
2023/08/14 04:12:10;;;;;;;;;;;19.40;99.90;;;;;;2058925;28;20154;-68
2023/08/14 04:13:10;;;;;;;;;;;19.50;99.90;;;;;;2060741;28;20245;-67
2023/08/14 04:14:11;;;;;;;;;;;19.50;99.90;;;;;;2058123;28;20377;-67
2023/08/14 04:15:13;;;;;;;;;;;19.50;99.90;;;;;;2058125;28;19918;-67
2023/08/14 04:16:13;;;;;;;;;;;19.50;99.90;;;;;;2049195;28;20457;-67
2023/08/14 04:17:14;;;;;;;;;;;19.50;99.90;;;;;;2056880;28;19914;-68
2023/08/14 04:18:14;;;;;;;;;;;19.50;99.90;;;;;;2060789;28;19925;-67
2023/08/14 04:19:17;;;;;;;;;;;19.50;99.90;;;;;;2058114;28;20381;-67
2023/08/14 04:20:17;;;;;;;;;;;19.50;99.90;;;;;;2057798;28;19926;-68
2023/08/14 04:21:18;;;;;;;;;;;19.50;99.90;;;;;;2057706;28;20127;-68
2023/08/14 04:22:18;;;;;;;;;;;19.50;99.90;;;;;;2054180;28;20029;-68
2023/08/14 04:23:19;;;;;;;;;;;19.50;99.90;;;;;;2051744;28;19914;-68
2023/08/14 04:24:19;;;;;;;;;;;19.50;99.90;;;;;;2047722;28;20077;-69
2023/08/14 04:25:20;;;;;;;;;;;19.60;99.90;;;;;;2055007;28;19921;-69
2023/08/14 04:26:20;;;;;;;;;;;19.50;99.90;;;;;;2056290;28;19918;-69
2023/08/14 04:27:21;;;;;;;;;;;19.60;99.90;;;;;;2049756;28;19918;-68
2023/08/14 04:28:21;;;;;;;;;;;19.60;99.90;;;;;;2049959;28;19949;-68
2023/08/14 04:29:22;;;;;;;;;;;19.60;99.90;;;;;;2049588;28;19925;-71
2023/08/14 04:30:23;;;;;;;;;;;19.70;99.90;;;;;;2055835;28;20274;-69
2023/08/14 04:31:23;;;;;;;;;;;19.70;99.90;;;;;;2065883;28;20223;-68
2023/08/14 04:32:24;;;;;;;;;;;19.70;99.90;;;;;;2064399;28;19914;-68
2023/08/14 04:33:24;;;;;;;;;;;19.70;99.90;;;;;;2054699;28;19920;-70
2023/08/14 04:34:25;;;;;;;;;;;19.80;99.90;;;;;;2051636;28;19977;-70
2023/08/14 04:35:27;;;;;;;;;;;19.80;99.90;;;;;;2057890;28;20162;-70
2023/08/14 04:36:29;;;;;;;;;;;19.80;99.90;;;;;;2058078;28;19924;-70
2023/08/14 04:37:29;;;;;;;;;;;19.80;99.90;;;;;;2058832;28;20441;-70
2023/08/14 04:38:30;;;;;;;;;;;19.80;99.90;;;;;;2060538;28;19914;-70
2023/08/14 04:39:30;;;;;;;;;;;19.80;99.90;;;;;;2058121;28;19925;-70
2023/08/14 04:40:31;;;;;;;;;;;19.90;99.90;;;;;;2057847;28;19918;-69
2023/08/14 04:41:31;;;;;;;;;;;19.90;99.90;;;;;;2058095;28;20265;-70
2023/08/14 04:42:33;;;;;;;;;;;19.90;99.90;;;;;;2067997;28;20384;-71
2023/08/14 04:43:33;;;;;;;;;;;19.90;99.90;;;;;;2057915;28;20321;-71
2023/08/14 04:44:34;;;;;;;;;;;19.90;99.90;;;;;;2057842;28;20173;-71
2023/08/14 04:45:35;;;;;;;;;;;20.00;99.90;;;;;;2046098;28;19920;-71
2023/08/14 04:46:36;;;;;;;;;;;20.10;99.90;;;;;;2046452;28;19914;-71
2023/08/14 04:47:37;;;;;;;;;;;20.10;99.90;;;;;;2048340;28;19918;-71
2023/08/14 04:48:38;;;;;;;;;;;20.10;99.90;;;;;;2057759;28;20001;-69
2023/08/14 04:49:39;;;;;;;;;;;20.20;99.90;;;;;;2048558;28;19919;-70
2023/08/14 04:50:40;;;;;;;;;;;20.30;99.90;;;;;;2045063;28;20134;-70
2023/08/14 04:51:41;;;;;;;;;;;20.50;99.90;;;;;;2047823;28;20428;-70
2023/08/14 04:52:41;;;;;;;;;;;20.70;99.90;;;;;;2050976;28;19919;-69
2023/08/14 04:53:42;;;;;;;;;;;20.80;99.90;;;;;;2056355;28;19918;-70
2023/08/14 04:54:42;;;;;;;;;;;20.80;99.90;;;;;;2057961;28;20401;-70
2023/08/14 04:55:44;;;;;;;;;;;20.90;99.90;;;;;;2049706;28;19993;-70
2023/08/14 04:56:44;;;;;;;;;;;21.00;99.90;;;;;;2053776;28;20113;-70
2023/08/14 04:57:45;;;;;;;;;;;21.00;99.90;;;;;;2059338;28;19918;-73
2023/08/14 04:58:46;;;;;;;;;;;21.10;99.90;;;;;;2055908;28;20289;-70
2023/08/14 04:59:46;;;;;;;;;;;21.20;99.90;;;;;;2058739;28;19925;-69
2023/08/14 05:00:47;;;;;;;;;;;21.20;99.90;;;;;;2051164;28;19998;-68
2023/08/14 05:01:49;;;;;;;;;;;21.20;99.90;;;;;;2044988;28;20028;-69
2023/08/14 05:02:51;;;;;;;;;;;21.20;99.90;;;;;;2048085;28;19917;-69
2023/08/14 05:03:52;;;;;;;;;;;21.20;99.90;;;;;;2062747;28;19918;-69
2023/08/14 05:04:52;;;;;;;;;;;21.20;99.90;;;;;;2056625;28;19924;-68
2023/08/14 05:05:53;;;;;;;;;;;21.20;99.90;;;;;;2045487;28;19919;-69
2023/08/14 05:06:53;;;;;;;;;;;21.20;99.90;;;;;;2035729;29;19918;-69
2023/08/14 05:07:54;;;;;;;;;;;21.20;99.90;;;;;;2042137;28;19918;-69
2023/08/14 05:08:55;;;;;;;;;;;21.20;99.90;;;;;;2052790;28;19925;-70
2023/08/14 05:09:56;;;;;;;;;;;21.30;99.90;;;;;;2050137;28;19957;-69
2023/08/14 05:10:57;;;;;;;;;;;21.30;99.90;;;;;;2049827;28;20016;-69
2023/08/14 05:11:58;;;;;;;;;;;21.40;99.90;;;;;;2060029;28;19945;-70
2023/08/14 05:12:58;;;;;;;;;;;21.30;99.90;;;;;;2054115;28;20013;-69
2023/08/14 05:14:00;;;;;;;;;;;21.30;99.90;;;;;;2050601;28;19918;-70
2023/08/14 05:15:00;;;;;;;;;;;21.30;99.90;;;;;;2046142;28;19915;-69
2023/08/14 05:16:01;;;;;;;;;;;21.30;99.90;;;;;;2059895;28;20284;-70
2023/08/14 05:17:01;;;;;;;;;;;21.20;99.90;;;;;;2058682;28;19924;-69
2023/08/14 05:18:02;;;;;;;;;;;21.20;99.90;;;;;;2057445;28;20749;-70
2023/08/14 05:19:03;;;;;;;;;;;21.10;99.90;;;;;;2049688;28;19918;-69
2023/08/14 05:20:03;;;;;;;;;;;21.10;99.90;;;;;;2051421;28;20004;-69
2023/08/14 05:21:04;;;;;;;;;;;21.10;99.90;;;;;;2047192;28;20401;-69
2023/08/14 05:22:05;;;;;;;;;;;21.20;99.90;;;;;;2041851;28;19918;-69
2023/08/14 05:23:08;;;;;;;;;;;21.40;99.90;;;;;;2053912;28;19918;-69
2023/08/14 05:24:08;;;;;;;;;;;21.60;99.90;;;;;;2063456;28;19921;-69
2023/08/14 05:25:10;;;;;;;;;;;21.60;99.90;;;;;;2058559;28;20290;-69
2023/08/14 05:26:11;;;;;;;;;;;21.70;99.90;;;;;;2058583;28;20009;-69
2023/08/14 05:27:11;;;;;;;;;;;21.70;99.90;;;;;;2058519;28;20495;-69
2023/08/14 05:28:12;;;;;;;;;;;21.70;99.90;;;;;;2060249;28;20420;-69
2023/08/14 05:29:12;;;;;;;;;;;21.70;99.90;;;;;;2054158;28;20008;-69
2023/08/14 05:30:13;;;;;;;;;;;21.60;99.90;;;;;;2058703;28;20440;-70
2023/08/14 05:31:13;;;;;;;;;;;21.50;99.90;;;;;;2058268;28;19921;-70
2023/08/14 05:32:14;;;;;;;;;;;21.50;99.90;;;;;;2057609;28;20179;-71
2023/08/14 05:33:15;;;;;;;;;;;21.50;99.90;;;;;;2057856;28;19929;-71
2023/08/14 05:34:15;;;;;;;;;;;21.50;99.90;;;;;;2059764;28;19997;-70
2023/08/14 05:35:16;;;;;;;;;;;21.50;99.90;;;;;;2058499;28;20443;-70
2023/08/14 05:36:17;;;;;;;;;;;21.50;99.90;;;;;;2058771;28;19918;-71
2023/08/14 05:37:17;;;;;;;;;;;21.50;99.90;;;;;;2062091;28;19956;-69
2023/08/14 05:38:17;;;;;;;;;;;21.60;99.90;;;;;;2055917;28;19917;-70
2023/08/14 05:39:18;;;;;;;;;;;21.60;99.90;;;;;;2058213;28;20077;-70
2023/08/14 05:40:19;;;;;;;;;;;21.70;99.90;;;;;;2058226;28;19960;-70
2023/08/14 05:41:24;;;;;;;;;;;21.70;99.90;;;;;;2058133;28;19945;-69
2023/08/14 05:42:25;;;;;;;;;;;21.70;99.90;;;;;;2055557;28;20135;-71
2023/08/14 05:43:25;;;;;;;;;;;21.70;99.90;;;;;;2059771;28;20366;-71
2023/08/14 05:44:26;;;;;;;;;;;21.70;99.90;;;;;;2046172;28;19925;-71
2023/08/14 05:45:26;;;;;;;;;;;21.70;99.90;;;;;;2057816;28;20425;-70
2023/08/14 05:46:27;;;;;;;;;;;21.70;99.90;;;;;;2059995;28;20273;-71
2023/08/14 05:47:27;;;;;;;;;;;21.70;99.90;;;;;;2060079;28;19937;-70
2023/08/14 05:48:28;;;;;;;;;;;21.80;99.90;;;;;;2059573;28;19932;-71
2023/08/14 05:49:28;;;;;;;;;;;21.90;99.90;;;;;;2061752;28;20198;-71
2023/08/14 05:50:30;;;;;;;;;;;22.00;99.90;;;;;;2046440;28;19946;-71
2023/08/14 05:51:30;;;;;;;;;;;22.00;99.90;;;;;;2050103;28;20417;-71
2023/08/14 05:52:37;;;;;;;;;;;22.20;99.90;;;;;;2052649;28;20025;-71
2023/08/14 05:53:37;;;;;;;;;;;22.30;99.90;;;;;;2067411;28;20000;-71
2023/08/14 05:54:39;;;;;;;;;;;22.50;99.90;;;;;;2060596;28;19918;-71
2023/08/14 05:55:41;;;;;;;;;;;22.80;99.90;;;;;;2059119;28;19914;-69
2023/08/14 05:56:42;;;;;;;;;;;23.00;99.90;;;;;;2059232;28;20227;-69